sensor_id;sensor_type;location;lat;lon;timestamp;P1;durP1;ratioP1;P2;durP2;ratioP2
7195;SDS011;3639;51.308;5.624;2023-05-14T00:00:36;11.10;;;8.33;;
7195;SDS011;3639;51.308;5.624;2023-05-14T00:03:02;11.37;;;8.90;;
7195;SDS011;3639;51.308;5.624;2023-05-14T00:05:28;8.93;;;7.77;;
7195;SDS011;3639;51.308;5.624;2023-05-14T00:07:53;9.10;;;8.17;;
7195;SDS011;3639;51.308;5.624;2023-05-14T00:10:19;9.10;;;7.83;;
7195;SDS011;3639;51.308;5.624;2023-05-14T00:12:45;10.00;;;8.03;;
7195;SDS011;3639;51.308;5.624;2023-05-14T00:15:11;11.17;;;8.47;;
7195;SDS011;3639;51.308;5.624;2023-05-14T00:17:37;10.50;;;8.03;;
7195;SDS011;3639;51.308;5.624;2023-05-14T00:20:03;13.73;;;8.60;;
7195;SDS011;3639;51.308;5.624;2023-05-14T00:22:31;11.83;;;8.47;;
7195;SDS011;3639;51.308;5.624;2023-05-14T00:24:57;12.33;;;8.77;;
7195;SDS011;3639;51.308;5.624;2023-05-14T00:27:23;11.50;;;8.13;;
7195;SDS011;3639;51.308;5.624;2023-05-14T00:29:48;10.50;;;8.53;;
7195;SDS011;3639;51.308;5.624;2023-05-14T00:32:14;10.80;;;8.60;;
7195;SDS011;3639;51.308;5.624;2023-05-14T00:34:40;10.13;;;8.80;;
7195;SDS011;3639;51.308;5.624;2023-05-14T00:37:05;12.50;;;8.50;;
7195;SDS011;3639;51.308;5.624;2023-05-14T00:39:31;12.80;;;9.03;;
7195;SDS011;3639;51.308;5.624;2023-05-14T00:41:57;11.30;;;9.23;;
7195;SDS011;3639;51.308;5.624;2023-05-14T00:44:22;12.03;;;9.03;;
7195;SDS011;3639;51.308;5.624;2023-05-14T00:46:48;13.83;;;9.43;;
7195;SDS011;3639;51.308;5.624;2023-05-14T00:49:14;12.63;;;9.07;;
7195;SDS011;3639;51.308;5.624;2023-05-14T00:51:40;12.63;;;9.87;;
7195;SDS011;3639;51.308;5.624;2023-05-14T00:54:06;10.87;;;9.43;;
7195;SDS011;3639;51.308;5.624;2023-05-14T00:56:33;11.23;;;8.67;;
7195;SDS011;3639;51.308;5.624;2023-05-14T00:58:59;11.07;;;9.13;;
7195;SDS011;3639;51.308;5.624;2023-05-14T01:01:25;17.40;;;9.83;;
7195;SDS011;3639;51.308;5.624;2023-05-14T01:03:52;13.40;;;9.33;;
7195;SDS011;3639;51.308;5.624;2023-05-14T01:11:59;12.70;;;9.23;;
7195;SDS011;3639;51.308;5.624;2023-05-14T01:14:43;12.90;;;9.73;;
7195;SDS011;3639;51.308;5.624;2023-05-14T01:17:12;13.37;;;9.63;;
7195;SDS011;3639;51.308;5.624;2023-05-14T01:19:41;12.23;;;9.33;;
7195;SDS011;3639;51.308;5.624;2023-05-14T01:22:07;13.17;;;8.97;;
7195;SDS011;3639;51.308;5.624;2023-05-14T01:24:33;10.93;;;9.20;;
7195;SDS011;3639;51.308;5.624;2023-05-14T01:27:06;11.03;;;9.83;;
7195;SDS011;3639;51.308;5.624;2023-05-14T01:29:36;13.30;;;8.87;;
7195;SDS011;3639;51.308;5.624;2023-05-14T01:32:06;13.13;;;9.97;;
7195;SDS011;3639;51.308;5.624;2023-05-14T01:34:34;15.07;;;10.37;;
7195;SDS011;3639;51.308;5.624;2023-05-14T01:37:01;12.63;;;9.17;;
7195;SDS011;3639;51.308;5.624;2023-05-14T01:39:28;15.57;;;10.37;;
7195;SDS011;3639;51.308;5.624;2023-05-14T01:41:56;15.13;;;10.60;;
7195;SDS011;3639;51.308;5.624;2023-05-14T01:44:23;12.60;;;8.90;;
7195;SDS011;3639;51.308;5.624;2023-05-14T01:46:49;12.93;;;10.07;;
7195;SDS011;3639;51.308;5.624;2023-05-14T01:49:16;13.77;;;10.37;;
7195;SDS011;3639;51.308;5.624;2023-05-14T01:51:43;17.47;;;10.57;;
7195;SDS011;3639;51.308;5.624;2023-05-14T01:54:09;14.50;;;10.27;;
7195;SDS011;3639;51.308;5.624;2023-05-14T01:56:34;17.53;;;10.57;;
7195;SDS011;3639;51.308;5.624;2023-05-14T01:59:00;16.13;;;10.93;;
7195;SDS011;3639;51.308;5.624;2023-05-14T02:01:26;12.03;;;10.00;;
7195;SDS011;3639;51.308;5.624;2023-05-14T02:03:51;15.17;;;10.57;;
7195;SDS011;3639;51.308;5.624;2023-05-14T02:06:17;13.37;;;10.37;;
7195;SDS011;3639;51.308;5.624;2023-05-14T02:08:42;14.23;;;10.17;;
7195;SDS011;3639;51.308;5.624;2023-05-14T02:11:08;13.00;;;10.37;;
7195;SDS011;3639;51.308;5.624;2023-05-14T02:13:34;15.10;;;11.07;;
7195;SDS011;3639;51.308;5.624;2023-05-14T02:16:00;15.63;;;10.80;;
7195;SDS011;3639;51.308;5.624;2023-05-14T02:18:25;14.00;;;10.77;;
7195;SDS011;3639;51.308;5.624;2023-05-14T02:20:51;16.07;;;10.23;;
7195;SDS011;3639;51.308;5.624;2023-05-14T02:23:16;16.67;;;10.43;;
7195;SDS011;3639;51.308;5.624;2023-05-14T02:25:43;16.73;;;11.30;;
7195;SDS011;3639;51.308;5.624;2023-05-14T02:28:08;15.17;;;11.30;;
7195;SDS011;3639;51.308;5.624;2023-05-14T02:30:34;13.60;;;10.77;;
7195;SDS011;3639;51.308;5.624;2023-05-14T02:32:59;15.27;;;10.67;;
7195;SDS011;3639;51.308;5.624;2023-05-14T02:35:25;12.97;;;11.50;;
7195;SDS011;3639;51.308;5.624;2023-05-14T02:37:51;13.47;;;10.93;;
7195;SDS011;3639;51.308;5.624;2023-05-14T02:40:18;18.37;;;11.90;;
7195;SDS011;3639;51.308;5.624;2023-05-14T02:42:43;19.13;;;12.40;;
7195;SDS011;3639;51.308;5.624;2023-05-14T02:45:09;16.77;;;12.20;;
7195;SDS011;3639;51.308;5.624;2023-05-14T02:47:35;13.97;;;11.47;;
7195;SDS011;3639;51.308;5.624;2023-05-14T02:50:00;14.20;;;11.40;;
7195;SDS011;3639;51.308;5.624;2023-05-14T02:52:26;14.77;;;11.70;;
7195;SDS011;3639;51.308;5.624;2023-05-14T02:54:51;17.40;;;12.33;;
7195;SDS011;3639;51.308;5.624;2023-05-14T02:57:17;15.73;;;12.20;;
7195;SDS011;3639;51.308;5.624;2023-05-14T02:59:42;18.93;;;12.43;;
7195;SDS011;3639;51.308;5.624;2023-05-14T03:02:08;17.53;;;12.40;;
7195;SDS011;3639;51.308;5.624;2023-05-14T03:04:33;19.43;;;11.73;;
7195;SDS011;3639;51.308;5.624;2023-05-14T03:06:59;17.73;;;12.13;;
7195;SDS011;3639;51.308;5.624;2023-05-14T03:09:25;17.37;;;11.17;;
7195;SDS011;3639;51.308;5.624;2023-05-14T03:11:50;16.43;;;12.13;;
7195;SDS011;3639;51.308;5.624;2023-05-14T03:14:16;20.17;;;12.47;;
7195;SDS011;3639;51.308;5.624;2023-05-14T03:16:41;15.53;;;11.73;;
7195;SDS011;3639;51.308;5.624;2023-05-14T03:19:07;16.07;;;11.57;;
7195;SDS011;3639;51.308;5.624;2023-05-14T03:21:33;17.90;;;12.60;;
7195;SDS011;3639;51.308;5.624;2023-05-14T03:23:59;18.07;;;12.30;;
7195;SDS011;3639;51.308;5.624;2023-05-14T03:26:25;16.90;;;12.00;;
7195;SDS011;3639;51.308;5.624;2023-05-14T03:28:50;15.80;;;12.43;;
7195;SDS011;3639;51.308;5.624;2023-05-14T03:31:16;17.43;;;11.57;;
7195;SDS011;3639;51.308;5.624;2023-05-14T03:33:42;17.17;;;12.50;;
7195;SDS011;3639;51.308;5.624;2023-05-14T03:36:07;16.53;;;12.07;;
7195;SDS011;3639;51.308;5.624;2023-05-14T03:38:33;17.33;;;12.47;;
7195;SDS011;3639;51.308;5.624;2023-05-14T03:40:58;16.50;;;12.20;;
7195;SDS011;3639;51.308;5.624;2023-05-14T03:43:24;17.70;;;12.77;;
7195;SDS011;3639;51.308;5.624;2023-05-14T03:45:50;16.60;;;11.53;;
7195;SDS011;3639;51.308;5.624;2023-05-14T03:48:16;17.13;;;13.33;;
7195;SDS011;3639;51.308;5.624;2023-05-14T03:50:43;18.03;;;13.23;;
7195;SDS011;3639;51.308;5.624;2023-05-14T03:53:09;16.80;;;12.50;;
7195;SDS011;3639;51.308;5.624;2023-05-14T03:55:34;19.30;;;13.87;;
7195;SDS011;3639;51.308;5.624;2023-05-14T03:58:00;19.63;;;12.90;;
7195;SDS011;3639;51.308;5.624;2023-05-14T04:00:27;18.83;;;12.63;;
7195;SDS011;3639;51.308;5.624;2023-05-14T04:02:53;22.73;;;12.53;;
7195;SDS011;3639;51.308;5.624;2023-05-14T04:05:18;19.83;;;13.10;;
7195;SDS011;3639;51.308;5.624;2023-05-14T04:07:44;17.37;;;13.17;;
7195;SDS011;3639;51.308;5.624;2023-05-14T04:10:10;17.13;;;12.50;;
7195;SDS011;3639;51.308;5.624;2023-05-14T04:12:37;17.13;;;12.60;;
7195;SDS011;3639;51.308;5.624;2023-05-14T04:15:03;17.90;;;11.83;;
7195;SDS011;3639;51.308;5.624;2023-05-14T04:17:29;15.53;;;12.37;;
7195;SDS011;3639;51.308;5.624;2023-05-14T04:19:54;16.53;;;12.23;;
7195;SDS011;3639;51.308;5.624;2023-05-14T04:22:20;17.73;;;12.90;;
7195;SDS011;3639;51.308;5.624;2023-05-14T04:24:45;14.93;;;11.53;;
7195;SDS011;3639;51.308;5.624;2023-05-14T04:27:13;17.20;;;12.70;;
7195;SDS011;3639;51.308;5.624;2023-05-14T04:29:48;19.10;;;12.63;;
7195;SDS011;3639;51.308;5.624;2023-05-14T04:32:14;16.67;;;11.97;;
7195;SDS011;3639;51.308;5.624;2023-05-14T04:34:40;18.60;;;13.27;;
7195;SDS011;3639;51.308;5.624;2023-05-14T04:37:05;17.97;;;13.70;;
7195;SDS011;3639;51.308;5.624;2023-05-14T04:39:32;17.87;;;12.97;;
7195;SDS011;3639;51.308;5.624;2023-05-14T04:41:57;21.77;;;14.83;;
7195;SDS011;3639;51.308;5.624;2023-05-14T04:44:23;18.03;;;14.47;;
7195;SDS011;3639;51.308;5.624;2023-05-14T04:46:48;25.60;;;15.17;;
7195;SDS011;3639;51.308;5.624;2023-05-14T04:49:14;20.93;;;14.17;;
7195;SDS011;3639;51.308;5.624;2023-05-14T04:51:39;22.40;;;14.07;;
7195;SDS011;3639;51.308;5.624;2023-05-14T04:54:05;16.80;;;12.73;;
7195;SDS011;3639;51.308;5.624;2023-05-14T04:56:30;17.70;;;12.93;;
7195;SDS011;3639;51.308;5.624;2023-05-14T04:58:56;17.73;;;12.93;;
7195;SDS011;3639;51.308;5.624;2023-05-14T05:01:21;24.60;;;14.50;;
7195;SDS011;3639;51.308;5.624;2023-05-14T05:03:47;21.63;;;15.07;;
7195;SDS011;3639;51.308;5.624;2023-05-14T05:06:13;20.30;;;15.30;;
7195;SDS011;3639;51.308;5.624;2023-05-14T05:08:39;23.23;;;16.00;;
7195;SDS011;3639;51.308;5.624;2023-05-14T05:11:05;24.20;;;16.17;;
7195;SDS011;3639;51.308;5.624;2023-05-14T05:13:31;25.80;;;16.50;;
7195;SDS011;3639;51.308;5.624;2023-05-14T05:15:57;24.20;;;15.73;;
7195;SDS011;3639;51.308;5.624;2023-05-14T05:18:22;24.77;;;14.70;;
7195;SDS011;3639;51.308;5.624;2023-05-14T05:20:48;21.40;;;15.13;;
7195;SDS011;3639;51.308;5.624;2023-05-14T05:23:13;23.40;;;15.83;;
7195;SDS011;3639;51.308;5.624;2023-05-14T05:25:39;25.20;;;16.20;;
7195;SDS011;3639;51.308;5.624;2023-05-14T05:28:05;24.40;;;16.43;;
7195;SDS011;3639;51.308;5.624;2023-05-14T05:30:30;23.20;;;16.10;;
7195;SDS011;3639;51.308;5.624;2023-05-14T05:32:56;24.50;;;17.17;;
7195;SDS011;3639;51.308;5.624;2023-05-14T05:35:22;27.40;;;17.40;;
7195;SDS011;3639;51.308;5.624;2023-05-14T05:37:47;24.17;;;17.40;;
7195;SDS011;3639;51.308;5.624;2023-05-14T05:40:13;23.40;;;16.57;;
7195;SDS011;3639;51.308;5.624;2023-05-14T05:42:39;27.13;;;16.47;;
7195;SDS011;3639;51.308;5.624;2023-05-14T05:45:06;27.80;;;17.60;;
7195;SDS011;3639;51.308;5.624;2023-05-14T05:47:31;24.53;;;16.80;;
7195;SDS011;3639;51.308;5.624;2023-05-14T05:49:57;24.07;;;16.53;;
7195;SDS011;3639;51.308;5.624;2023-05-14T05:52:23;24.63;;;16.20;;
7195;SDS011;3639;51.308;5.624;2023-05-14T05:54:49;28.40;;;16.63;;
7195;SDS011;3639;51.308;5.624;2023-05-14T05:57:14;26.30;;;15.60;;
7195;SDS011;3639;51.308;5.624;2023-05-14T05:59:40;24.17;;;15.90;;
7195;SDS011;3639;51.308;5.624;2023-05-14T06:02:05;24.43;;;15.13;;
7195;SDS011;3639;51.308;5.624;2023-05-14T06:04:31;21.43;;;16.70;;
7195;SDS011;3639;51.308;5.624;2023-05-14T06:06:56;21.87;;;16.27;;
7195;SDS011;3639;51.308;5.624;2023-05-14T06:09:22;25.93;;;16.47;;
7195;SDS011;3639;51.308;5.624;2023-05-14T06:11:47;21.70;;;16.00;;
7195;SDS011;3639;51.308;5.624;2023-05-14T06:14:13;22.53;;;16.07;;
7195;SDS011;3639;51.308;5.624;2023-05-14T06:16:38;20.07;;;14.97;;
7195;SDS011;3639;51.308;5.624;2023-05-14T06:19:04;25.90;;;15.27;;
7195;SDS011;3639;51.308;5.624;2023-05-14T06:21:30;24.80;;;14.90;;
7195;SDS011;3639;51.308;5.624;2023-05-14T06:23:55;27.20;;;14.90;;
7195;SDS011;3639;51.308;5.624;2023-05-14T06:26:21;23.47;;;15.73;;
7195;SDS011;3639;51.308;5.624;2023-05-14T06:28:47;22.97;;;14.90;;
7195;SDS011;3639;51.308;5.624;2023-05-14T06:31:13;23.17;;;16.70;;
7195;SDS011;3639;51.308;5.624;2023-05-14T06:33:38;20.23;;;15.37;;
7195;SDS011;3639;51.308;5.624;2023-05-14T06:36:04;20.47;;;15.17;;
7195;SDS011;3639;51.308;5.624;2023-05-14T06:38:31;25.33;;;15.23;;
7195;SDS011;3639;51.308;5.624;2023-05-14T06:40:57;21.77;;;15.40;;
7195;SDS011;3639;51.308;5.624;2023-05-14T06:43:22;22.27;;;15.30;;
7195;SDS011;3639;51.308;5.624;2023-05-14T06:45:48;22.73;;;15.47;;
7195;SDS011;3639;51.308;5.624;2023-05-14T06:48:14;24.90;;;15.23;;
7195;SDS011;3639;51.308;5.624;2023-05-14T06:50:42;22.80;;;15.20;;
7195;SDS011;3639;51.308;5.624;2023-05-14T06:53:08;23.00;;;16.73;;
7195;SDS011;3639;51.308;5.624;2023-05-14T06:55:33;21.33;;;14.67;;
7195;SDS011;3639;51.308;5.624;2023-05-14T06:57:59;20.90;;;14.80;;
7195;SDS011;3639;51.308;5.624;2023-05-14T07:00:25;20.43;;;14.70;;
7195;SDS011;3639;51.308;5.624;2023-05-14T07:02:51;22.07;;;14.67;;
7195;SDS011;3639;51.308;5.624;2023-05-14T07:05:17;21.63;;;14.77;;
7195;SDS011;3639;51.308;5.624;2023-05-14T07:07:43;22.27;;;14.23;;
7195;SDS011;3639;51.308;5.624;2023-05-14T07:10:09;19.03;;;14.33;;
7195;SDS011;3639;51.308;5.624;2023-05-14T07:12:34;18.60;;;14.33;;
7195;SDS011;3639;51.308;5.624;2023-05-14T07:15:00;22.80;;;14.73;;
7195;SDS011;3639;51.308;5.624;2023-05-14T07:17:25;19.83;;;14.17;;
7195;SDS011;3639;51.308;5.624;2023-05-14T07:19:51;21.73;;;14.00;;
7195;SDS011;3639;51.308;5.624;2023-05-14T07:22:19;19.70;;;13.87;;
7195;SDS011;3639;51.308;5.624;2023-05-14T07:24:44;18.90;;;14.03;;
7195;SDS011;3639;51.308;5.624;2023-05-14T07:27:10;20.83;;;14.20;;
7195;SDS011;3639;51.308;5.624;2023-05-14T07:29:36;22.47;;;14.53;;
7195;SDS011;3639;51.308;5.624;2023-05-14T07:32:02;21.70;;;14.70;;
7195;SDS011;3639;51.308;5.624;2023-05-14T07:34:27;20.30;;;14.10;;
7195;SDS011;3639;51.308;5.624;2023-05-14T07:36:53;18.83;;;13.63;;
7195;SDS011;3639;51.308;5.624;2023-05-14T07:39:19;20.37;;;14.60;;
7195;SDS011;3639;51.308;5.624;2023-05-14T07:41:45;18.77;;;14.30;;
7195;SDS011;3639;51.308;5.624;2023-05-14T07:44:11;19.50;;;13.03;;
7195;SDS011;3639;51.308;5.624;2023-05-14T07:46:36;20.50;;;13.47;;
7195;SDS011;3639;51.308;5.624;2023-05-14T07:49:02;17.30;;;13.63;;
7195;SDS011;3639;51.308;5.624;2023-05-14T07:51:28;19.57;;;13.80;;
7195;SDS011;3639;51.308;5.624;2023-05-14T07:53:53;18.07;;;12.90;;
7195;SDS011;3639;51.308;5.624;2023-05-14T07:56:20;18.30;;;13.17;;
7195;SDS011;3639;51.308;5.624;2023-05-14T07:58:46;16.63;;;12.07;;
7195;SDS011;3639;51.308;5.624;2023-05-14T08:01:11;19.27;;;12.80;;
7195;SDS011;3639;51.308;5.624;2023-05-14T08:03:37;19.47;;;13.60;;
7195;SDS011;3639;51.308;5.624;2023-05-14T08:06:03;17.40;;;13.17;;
7195;SDS011;3639;51.308;5.624;2023-05-14T08:08:29;15.43;;;13.00;;
7195;SDS011;3639;51.308;5.624;2023-05-14T08:10:55;18.77;;;12.90;;
7195;SDS011;3639;51.308;5.624;2023-05-14T08:13:20;16.67;;;13.03;;
7195;SDS011;3639;51.308;5.624;2023-05-14T08:15:46;18.40;;;13.17;;
7195;SDS011;3639;51.308;5.624;2023-05-14T08:18:12;16.53;;;12.13;;
7195;SDS011;3639;51.308;5.624;2023-05-14T08:20:37;22.23;;;13.37;;
7195;SDS011;3639;51.308;5.624;2023-05-14T08:23:03;17.13;;;12.07;;
7195;SDS011;3639;51.308;5.624;2023-05-14T08:25:28;17.83;;;12.40;;
7195;SDS011;3639;51.308;5.624;2023-05-14T08:27:54;14.57;;;11.73;;
7195;SDS011;3639;51.308;5.624;2023-05-14T08:30:20;14.40;;;10.67;;
7195;SDS011;3639;51.308;5.624;2023-05-14T08:32:46;15.03;;;10.83;;
7195;SDS011;3639;51.308;5.624;2023-05-14T08:35:12;18.43;;;12.17;;
7195;SDS011;3639;51.308;5.624;2023-05-14T08:37:37;15.27;;;11.20;;
7195;SDS011;3639;51.308;5.624;2023-05-14T08:40:03;16.63;;;11.57;;
7195;SDS011;3639;51.308;5.624;2023-05-14T08:42:29;20.97;;;11.90;;
7195;SDS011;3639;51.308;5.624;2023-05-14T08:44:56;18.77;;;11.83;;
7195;SDS011;3639;51.308;5.624;2023-05-14T08:47:26;14.60;;;10.93;;
7195;SDS011;3639;51.308;5.624;2023-05-14T08:49:59;17.17;;;11.63;;
7195;SDS011;3639;51.308;5.624;2023-05-14T08:52:28;18.63;;;11.47;;
7195;SDS011;3639;51.308;5.624;2023-05-14T08:54:55;16.50;;;11.53;;
7195;SDS011;3639;51.308;5.624;2023-05-14T08:57:22;19.77;;;12.63;;
7195;SDS011;3639;51.308;5.624;2023-05-14T08:59:50;15.17;;;11.30;;
7195;SDS011;3639;51.308;5.624;2023-05-14T09:02:16;14.13;;;10.63;;
7195;SDS011;3639;51.308;5.624;2023-05-14T09:04:46;18.00;;;10.97;;
7195;SDS011;3639;51.308;5.624;2023-05-14T09:07:13;16.27;;;10.90;;
7195;SDS011;3639;51.308;5.624;2023-05-14T09:09:39;15.43;;;12.07;;
7195;SDS011;3639;51.308;5.624;2023-05-14T09:12:05;13.83;;;10.90;;
7195;SDS011;3639;51.308;5.624;2023-05-14T09:14:32;17.70;;;10.83;;
7195;SDS011;3639;51.308;5.624;2023-05-14T09:16:57;15.50;;;10.83;;
7195;SDS011;3639;51.308;5.624;2023-05-14T09:19:26;14.37;;;10.10;;
7195;SDS011;3639;51.308;5.624;2023-05-14T09:21:56;15.83;;;10.50;;
7195;SDS011;3639;51.308;5.624;2023-05-14T09:24:23;16.80;;;10.90;;
7195;SDS011;3639;51.308;5.624;2023-05-14T09:26:54;14.70;;;10.57;;
7195;SDS011;3639;51.308;5.624;2023-05-14T09:29:23;16.87;;;9.90;;
7195;SDS011;3639;51.308;5.624;2023-05-14T09:31:49;16.13;;;10.23;;
7195;SDS011;3639;51.308;5.624;2023-05-14T09:34:26;13.90;;;10.00;;
7195;SDS011;3639;51.308;5.624;2023-05-14T09:36:56;14.90;;;9.33;;
7195;SDS011;3639;51.308;5.624;2023-05-14T09:39:24;14.10;;;9.10;;
7195;SDS011;3639;51.308;5.624;2023-05-14T09:41:50;14.57;;;9.30;;
7195;SDS011;3639;51.308;5.624;2023-05-14T09:44:16;14.23;;;9.93;;
7195;SDS011;3639;51.308;5.624;2023-05-14T09:46:43;12.83;;;9.47;;
7195;SDS011;3639;51.308;5.624;2023-05-14T09:49:09;12.97;;;9.47;;
7195;SDS011;3639;51.308;5.624;2023-05-14T09:51:35;12.50;;;8.33;;
7195;SDS011;3639;51.308;5.624;2023-05-14T09:54:02;14.50;;;8.90;;
7195;SDS011;3639;51.308;5.624;2023-05-14T09:56:29;12.43;;;8.60;;
7195;SDS011;3639;51.308;5.624;2023-05-14T09:58:56;13.27;;;9.33;;
7195;SDS011;3639;51.308;5.624;2023-05-14T10:01:21;14.17;;;8.73;;
7195;SDS011;3639;51.308;5.624;2023-05-14T10:03:47;13.67;;;9.13;;
7195;SDS011;3639;51.308;5.624;2023-05-14T10:06:14;13.27;;;9.07;;
7195;SDS011;3639;51.308;5.624;2023-05-14T10:08:42;11.43;;;7.80;;
7195;SDS011;3639;51.308;5.624;2023-05-14T10:11:13;13.47;;;8.10;;
7195;SDS011;3639;51.308;5.624;2023-05-14T10:13:45;9.93;;;8.20;;
7195;SDS011;3639;51.308;5.624;2023-05-14T10:16:30;12.77;;;9.20;;
7195;SDS011;3639;51.308;5.624;2023-05-14T10:19:04;14.17;;;8.27;;
7195;SDS011;3639;51.308;5.624;2023-05-14T10:21:35;11.23;;;7.50;;
7195;SDS011;3639;51.308;5.624;2023-05-14T10:24:02;16.63;;;8.67;;
7195;SDS011;3639;51.308;5.624;2023-05-14T10:26:33;11.37;;;8.40;;
7195;SDS011;3639;51.308;5.624;2023-05-14T10:29:05;10.77;;;7.40;;
7195;SDS011;3639;51.308;5.624;2023-05-14T10:31:49;11.47;;;8.43;;
7195;SDS011;3639;51.308;5.624;2023-05-14T10:34:35;12.03;;;9.23;;
7195;SDS011;3639;51.308;5.624;2023-05-14T10:37:06;12.10;;;8.50;;
7195;SDS011;3639;51.308;5.624;2023-05-14T10:39:44;10.97;;;8.17;;
7195;SDS011;3639;51.308;5.624;2023-05-14T10:42:43;12.10;;;7.87;;
7195;SDS011;3639;51.308;5.624;2023-05-14T10:45:11;10.30;;;7.13;;
7195;SDS011;3639;51.308;5.624;2023-05-14T10:47:39;9.10;;;6.47;;
7195;SDS011;3639;51.308;5.624;2023-05-14T10:50:11;9.67;;;6.93;;
7195;SDS011;3639;51.308;5.624;2023-05-14T10:52:42;10.13;;;6.53;;
7195;SDS011;3639;51.308;5.624;2023-05-14T10:55:11;9.13;;;6.37;;
7195;SDS011;3639;51.308;5.624;2023-05-14T10:57:39;7.73;;;6.43;;
7195;SDS011;3639;51.308;5.624;2023-05-14T11:00:07;9.63;;;6.40;;
7195;SDS011;3639;51.308;5.624;2023-05-14T11:07:35;12.27;;;6.37;;
7195;SDS011;3639;51.308;5.624;2023-05-14T11:10:12;8.13;;;6.13;;
7195;SDS011;3639;51.308;5.624;2023-05-14T11:12:43;8.17;;;6.37;;
7195;SDS011;3639;51.308;5.624;2023-05-14T11:15:14;10.90;;;6.23;;
7195;SDS011;3639;51.308;5.624;2023-05-14T11:17:45;9.40;;;5.37;;
7195;SDS011;3639;51.308;5.624;2023-05-14T11:20:12;6.17;;;5.30;;
7195;SDS011;3639;51.308;5.624;2023-05-14T11:22:39;6.23;;;5.20;;
7195;SDS011;3639;51.308;5.624;2023-05-14T11:25:06;6.93;;;5.30;;
7195;SDS011;3639;51.308;5.624;2023-05-14T11:27:33;7.13;;;5.67;;
7195;SDS011;3639;51.308;5.624;2023-05-14T11:29:59;7.63;;;5.88;;
7195;SDS011;3639;51.308;5.624;2023-05-14T11:32:25;9.63;;;5.83;;
7195;SDS011;3639;51.308;5.624;2023-05-14T11:34:51;9.10;;;5.70;;
7195;SDS011;3639;51.308;5.624;2023-05-14T11:37:17;8.60;;;6.25;;
7195;SDS011;3639;51.308;5.624;2023-05-14T11:39:50;7.43;;;5.43;;
7195;SDS011;3639;51.308;5.624;2023-05-14T11:42:17;7.20;;;5.35;;
7195;SDS011;3639;51.308;5.624;2023-05-14T11:44:52;12.02;;;6.32;;
7195;SDS011;3639;51.308;5.624;2023-05-14T11:47:19;8.13;;;5.72;;
7195;SDS011;3639;51.308;5.624;2023-05-14T11:49:45;9.07;;;6.10;;
7195;SDS011;3639;51.308;5.624;2023-05-14T11:52:12;7.87;;;5.70;;
7195;SDS011;3639;51.308;5.624;2023-05-14T11:54:39;6.50;;;5.03;;
7195;SDS011;3639;51.308;5.624;2023-05-14T11:57:14;6.17;;;5.20;;
7195;SDS011;3639;51.308;5.624;2023-05-14T11:59:41;6.53;;;4.73;;
7195;SDS011;3639;51.308;5.624;2023-05-14T12:02:14;4.53;;;4.13;;
7195;SDS011;3639;51.308;5.624;2023-05-14T12:04:41;5.53;;;4.53;;
7195;SDS011;3639;51.308;5.624;2023-05-14T12:07:08;6.13;;;4.20;;
7195;SDS011;3639;51.308;5.624;2023-05-14T12:09:35;6.43;;;4.90;;
7195;SDS011;3639;51.308;5.624;2023-05-14T12:12:09;6.80;;;4.30;;
7195;SDS011;3639;51.308;5.624;2023-05-14T12:14:37;4.00;;;3.60;;
7195;SDS011;3639;51.308;5.624;2023-05-14T12:17:08;4.22;;;3.83;;
7195;SDS011;3639;51.308;5.624;2023-05-14T12:19:44;4.43;;;3.35;;
7195;SDS011;3639;51.308;5.624;2023-05-14T12:22:12;3.22;;;2.92;;
7195;SDS011;3639;51.308;5.624;2023-05-14T12:24:40;4.55;;;3.15;;
7195;SDS011;3639;51.308;5.624;2023-05-14T12:27:08;4.03;;;3.08;;
7195;SDS011;3639;51.308;5.624;2023-05-14T12:29:37;3.00;;;2.70;;
7195;SDS011;3639;51.308;5.624;2023-05-14T12:32:06;5.30;;;3.30;;
7195;SDS011;3639;51.308;5.624;2023-05-14T12:34:33;3.80;;;2.95;;
7195;SDS011;3639;51.308;5.624;2023-05-14T12:37:00;4.55;;;2.85;;
7195;SDS011;3639;51.308;5.624;2023-05-14T12:39:25;4.05;;;3.00;;
7195;SDS011;3639;51.308;5.624;2023-05-14T12:41:51;3.38;;;2.90;;
7195;SDS011;3639;51.308;5.624;2023-05-14T12:44:17;8.88;;;3.30;;
7195;SDS011;3639;51.308;5.624;2023-05-14T12:46:42;3.95;;;2.88;;
7195;SDS011;3639;51.308;5.624;2023-05-14T12:49:08;3.72;;;3.38;;
7195;SDS011;3639;51.308;5.624;2023-05-14T12:51:34;4.57;;;3.25;;
7195;SDS011;3639;51.308;5.624;2023-05-14T12:53:59;4.95;;;3.25;;
7195;SDS011;3639;51.308;5.624;2023-05-14T12:56:25;3.50;;;3.20;;
7195;SDS011;3639;51.308;5.624;2023-05-14T12:58:52;6.15;;;3.33;;
7195;SDS011;3639;51.308;5.624;2023-05-14T13:01:19;3.72;;;3.22;;
7195;SDS011;3639;51.308;5.624;2023-05-14T13:03:44;3.42;;;3.13;;
7195;SDS011;3639;51.308;5.624;2023-05-14T13:06:10;4.38;;;3.95;;
7195;SDS011;3639;51.308;5.624;2023-05-14T13:08:35;7.10;;;3.88;;
7195;SDS011;3639;51.308;5.624;2023-05-14T13:11:01;5.03;;;3.72;;
7195;SDS011;3639;51.308;5.624;2023-05-14T13:13:27;4.07;;;3.10;;
7195;SDS011;3639;51.308;5.624;2023-05-14T13:15:52;3.78;;;3.00;;
7195;SDS011;3639;51.308;5.624;2023-05-14T13:18:18;3.38;;;3.08;;
7195;SDS011;3639;51.308;5.624;2023-05-14T13:20:44;3.97;;;3.42;;
7195;SDS011;3639;51.308;5.624;2023-05-14T13:23:11;4.78;;;3.40;;
7195;SDS011;3639;51.308;5.624;2023-05-14T13:25:37;4.10;;;3.22;;
7195;SDS011;3639;51.308;5.624;2023-05-14T13:28:03;5.57;;;4.05;;
7195;SDS011;3639;51.308;5.624;2023-05-14T13:30:28;4.20;;;3.75;;
7195;SDS011;3639;51.308;5.624;2023-05-14T13:32:55;5.22;;;3.95;;
7195;SDS011;3639;51.308;5.624;2023-05-14T13:35:21;4.63;;;4.15;;
7195;SDS011;3639;51.308;5.624;2023-05-14T13:37:47;4.15;;;3.60;;
7195;SDS011;3639;51.308;5.624;2023-05-14T13:40:12;3.80;;;3.28;;
7195;SDS011;3639;51.308;5.624;2023-05-14T13:42:38;6.88;;;4.25;;
7195;SDS011;3639;51.308;5.624;2023-05-14T13:45:04;6.78;;;4.22;;
7195;SDS011;3639;51.308;5.624;2023-05-14T13:47:30;4.60;;;4.03;;
7195;SDS011;3639;51.308;5.624;2023-05-14T13:49:56;5.07;;;3.83;;
7195;SDS011;3639;51.308;5.624;2023-05-14T13:52:22;4.80;;;3.40;;
7195;SDS011;3639;51.308;5.624;2023-05-14T13:54:48;5.00;;;3.63;;
7195;SDS011;3639;51.308;5.624;2023-05-14T13:57:13;4.68;;;4.07;;
7195;SDS011;3639;51.308;5.624;2023-05-14T13:59:39;5.78;;;3.70;;
7195;SDS011;3639;51.308;5.624;2023-05-14T14:02:06;4.03;;;3.50;;
7195;SDS011;3639;51.308;5.624;2023-05-14T14:04:32;5.78;;;3.80;;
7195;SDS011;3639;51.308;5.624;2023-05-14T14:06:58;5.88;;;3.58;;
7195;SDS011;3639;51.308;5.624;2023-05-14T14:09:23;4.72;;;3.75;;
7195;SDS011;3639;51.308;5.624;2023-05-14T14:11:49;4.50;;;3.33;;
7195;SDS011;3639;51.308;5.624;2023-05-14T14:14:15;6.60;;;3.55;;
7195;SDS011;3639;51.308;5.624;2023-05-14T14:16:41;5.13;;;3.70;;
7195;SDS011;3639;51.308;5.624;2023-05-14T14:19:07;6.80;;;3.60;;
7195;SDS011;3639;51.308;5.624;2023-05-14T14:21:33;5.63;;;4.03;;
7195;SDS011;3639;51.308;5.624;2023-05-14T14:23:59;3.50;;;3.20;;
7195;SDS011;3639;51.308;5.624;2023-05-14T14:26:26;5.30;;;3.13;;
7195;SDS011;3639;51.308;5.624;2023-05-14T14:28:52;5.82;;;3.80;;
7195;SDS011;3639;51.308;5.624;2023-05-14T14:31:18;5.30;;;3.28;;
7195;SDS011;3639;51.308;5.624;2023-05-14T14:33:44;3.97;;;3.35;;
7195;SDS011;3639;51.308;5.624;2023-05-14T14:36:10;5.20;;;3.83;;
7195;SDS011;3639;51.308;5.624;2023-05-14T14:38:36;3.63;;;3.33;;
7195;SDS011;3639;51.308;5.624;2023-05-14T14:41:03;4.47;;;3.40;;
7195;SDS011;3639;51.308;5.624;2023-05-14T14:43:31;3.90;;;3.17;;
7195;SDS011;3639;51.308;5.624;2023-05-14T14:45:56;3.92;;;3.03;;
7195;SDS011;3639;51.308;5.624;2023-05-14T14:48:34;4.78;;;3.50;;
7195;SDS011;3639;51.308;5.624;2023-05-14T14:51:07;4.65;;;3.40;;
7195;SDS011;3639;51.308;5.624;2023-05-14T14:53:33;4.20;;;3.55;;
7195;SDS011;3639;51.308;5.624;2023-05-14T14:56:00;4.53;;;3.85;;
7195;SDS011;3639;51.308;5.624;2023-05-14T14:58:26;3.03;;;2.72;;
7195;SDS011;3639;51.308;5.624;2023-05-14T15:00:52;5.30;;;3.30;;
7195;SDS011;3639;51.308;5.624;2023-05-14T15:03:18;3.78;;;3.05;;
7195;SDS011;3639;51.308;5.624;2023-05-14T15:05:45;5.35;;;3.13;;